Time;durP1;ratioP1;P1;durP2;ratioP2;P2;SDS_P1;SDS_P2;PMS_P1;PMS_P2;Temp;Humidity;BMP_temperature;BMP_pressure;BME280_temperature;BME280_humidity;BME280_pressure;Samples;Min_cycle;Max_cycle;Signal;HPM_P1;HPM_P2
2023/07/17 00:01:15;;;;;;;7.85;3.20;;;20.40;88.50;;;;;;5085786;28;45179;-73
2023/07/17 00:03:42;;;;;;;8.35;3.25;;;19.90;89.60;;;;;;5085607;28;45326;-73
2023/07/17 00:06:08;;;;;;;11.63;3.35;;;19.60;91.30;;;;;;5085178;28;45209;-74
2023/07/17 00:08:37;;;;;;;9.07;3.05;;;19.50;91.50;;;;;;5087046;28;45158;-73
2023/07/17 00:11:04;;;;;;;10.48;4.10;;;19.60;91.60;;;;;;5084887;28;45126;-73
2023/07/17 00:13:31;;;;;;;9.07;3.42;;;19.80;98.80;;;;;;5085236;28;45100;-73
2023/07/17 00:15:57;;;;;;;19.00;4.45;;;19.60;99.90;;;;;;5083506;28;47870;-73
2023/07/17 00:18:24;;;;;;;8.25;3.15;;;19.40;99.90;;;;;;5084678;28;45284;-73
2023/07/17 00:20:51;;;;;;;6.85;3.28;;;19.10;99.90;;;;;;5074281;28;45119;-73
2023/07/17 00:23:18;;;;;;;11.93;3.45;;;19.00;99.90;;;;;;5084940;28;45360;-73
2023/07/17 00:25:46;;;;;;;8.88;3.33;;;19.00;99.90;;;;;;5084529;28;46333;-73
2023/07/17 00:28:13;;;;;;;7.60;3.20;;;18.90;99.90;;;;;;5085563;28;45157;-73
2023/07/17 00:30:40;;;;;;;5.13;2.50;;;18.90;99.90;;;;;;5077638;28;45161;-73
2023/07/17 00:33:08;;;;;;;6.50;2.80;;;18.90;99.90;;;;;;5002067;28;45275;-74
2023/07/17 00:35:35;;;;;;;6.97;3.22;;;18.80;99.90;;;;;;4984645;28;47312;-73
2023/07/17 00:38:02;;;;;;;5.00;2.35;;;18.80;99.90;;;;;;5008824;28;45157;-73
2023/07/17 00:40:29;;;;;;;7.10;2.90;;;18.80;99.90;;;;;;5079996;28;45284;-73
2023/07/17 00:42:59;;;;;;;5.20;2.85;;;18.80;99.90;;;;;;5081016;28;45082;-73
2023/07/17 00:45:26;;;;;;;5.38;2.45;;;18.80;99.90;;;;;;5042910;28;45174;-73
2023/07/17 00:47:53;;;;;;;8.90;2.70;;;18.80;99.90;;;;;;5087417;28;45161;-73
2023/07/17 00:50:20;;;;;;;4.28;2.30;;;18.80;99.90;;;;;;5087122;28;45035;-72
2023/07/17 00:52:47;;;;;;;6.82;2.40;;;18.80;99.90;;;;;;5087085;28;45284;-73
2023/07/17 00:55:14;;;;;;;6.45;2.90;;;18.90;99.90;;;;;;5078917;28;45277;-73
2023/07/17 00:57:42;;;;;;;7.55;2.85;;;18.90;99.90;;;;;;5059897;28;45236;-73
2023/07/17 01:00:12;;;;;;;6.38;2.33;;;18.90;99.90;;;;;;5061755;28;45176;-73
2023/07/17 01:02:40;;;;;;;5.68;2.45;;;19.00;99.90;;;;;;5086743;28;45161;-73
2023/07/17 01:05:08;;;;;;;8.52;2.63;;;19.00;99.90;;;;;;5089028;27;46637;-73
2023/07/17 01:07:37;;;;;;;5.20;2.40;;;19.00;99.90;;;;;;5080066;28;45186;-73
2023/07/17 01:10:05;;;;;;;4.85;2.42;;;19.10;99.90;;;;;;5097161;27;45113;-73
2023/07/17 01:12:35;;;;;;;5.07;2.20;;;19.10;99.90;;;;;;5086788;28;45058;-74
2023/07/17 01:15:02;;;;;;;6.38;2.10;;;19.10;98.70;;;;;;5094430;27;47910;-72
2023/07/17 01:17:30;;;;;;;4.03;1.88;;;19.10;97.80;;;;;;5085655;28;45175;-73
2023/07/17 01:19:57;;;;;;;4.80;1.80;;;19.30;98.70;;;;;;5090557;27;45068;-73
2023/07/17 01:22:27;;;;;;;3.35;1.88;;;19.20;99.90;;;;;;5090581;27;45233;-73
2023/07/17 01:24:56;;;;;;;5.57;2.00;;;19.00;99.90;;;;;;5083054;27;46388;-73
2023/07/17 01:27:22;;;;;;;5.45;2.17;;;19.00;98.90;;;;;;5088256;27;45564;-73
2023/07/17 01:29:49;;;;;;;3.72;1.85;;;19.00;99.30;;;;;;5094224;27;45316;-73
2023/07/17 01:32:19;;;;;;;5.03;2.17;;;18.90;99.30;;;;;;5090705;27;45371;-73
2023/07/17 01:34:46;;;;;;;3.42;1.63;;;18.90;98.60;;;;;;5089161;27;45368;-73
2023/07/17 01:37:13;;;;;;;3.67;1.55;;;19.00;99.00;;;;;;5088904;27;45247;-73
2023/07/17 01:39:41;;;;;;;4.93;2.08;;;19.10;98.00;;;;;;5086268;27;45245;-73
2023/07/17 01:42:09;;;;;;;4.22;1.67;;;19.10;98.60;;;;;;5086058;27;45339;-72
2023/07/17 01:44:36;;;;;;;4.20;2.10;;;19.10;98.90;;;;;;5085052;27;47309;-73
2023/07/17 01:47:03;;;;;;;3.75;1.80;;;19.20;98.30;;;;;;5077526;28;45273;-73
2023/07/17 01:49:30;;;;;;;5.10;1.77;;;19.00;99.90;;;;;;5093726;27;45213;-73
2023/07/17 01:51:57;;;;;;;6.22;1.95;;;18.90;99.90;;;;;;5080287;28;45116;-73
2023/07/17 01:54:24;;;;;;;5.20;1.73;;;18.80;99.90;;;;;;5085713;28;45217;-72
2023/07/17 01:56:51;;;;;;;6.07;2.13;;;18.70;99.90;;;;;;5086283;27;45143;-72
2023/07/17 01:59:19;;;;;;;5.05;2.10;;;18.50;99.90;;;;;;5085267;28;45082;-73
2023/07/17 02:01:46;;;;;;;5.03;2.20;;;18.50;99.90;;;;;;5085140;28;45199;-72
2023/07/17 02:04:13;;;;;;;4.38;1.98;;;18.50;99.90;;;;;;5085072;28;47006;-73
2023/07/17 02:06:40;;;;;;;5.30;1.88;;;18.60;99.90;;;;;;5100382;27;45156;-72
2023/07/17 02:09:07;;;;;;;6.13;1.92;;;18.60;99.90;;;;;;5085077;28;45334;-72
2023/07/17 02:11:33;;;;;;;5.07;2.00;;;18.70;99.90;;;;;;5085777;28;45313;-73
2023/07/17 02:14:00;;;;;;;3.22;1.98;;;18.60;99.90;;;;;;5085358;28;45199;-73
2023/07/17 02:16:29;;;;;;;8.73;1.92;;;18.70;99.90;;;;;;5093897;27;45292;-73
2023/07/17 02:18:56;;;;;;;3.78;1.95;;;18.70;99.90;;;;;;5081555;27;45177;-72
2023/07/17 02:21:22;;;;;;;5.90;2.42;;;18.60;99.90;;;;;;5097046;27;45155;-72
2023/07/17 02:23:49;;;;;;;6.78;2.13;;;18.60;99.90;;;;;;5092854;27;47748;-72
2023/07/17 02:26:16;;;;;;;4.25;1.83;;;18.60;99.90;;;;;;5093244;27;45292;-72
2023/07/17 02:28:43;;;;;;;5.97;2.10;;;18.70;99.90;;;;;;5084386;28;45197;-72
2023/07/17 02:31:10;;;;;;;5.30;2.03;;;18.60;99.90;;;;;;5084916;28;45324;-72
2023/07/17 02:33:38;;;;;;;5.10;2.00;;;18.70;99.90;;;;;;5085056;28;45188;-72
2023/07/17 02:36:05;;;;;;;4.72;1.85;;;18.80;99.90;;;;;;5084574;27;45626;-72
2023/07/17 02:38:32;;;;;;;4.32;1.77;;;18.70;99.90;;;;;;5085554;27;45157;-72
2023/07/17 02:40:59;;;;;;;6.25;2.00;;;18.80;99.90;;;;;;5087353;27;45272;-72
2023/07/17 02:43:25;;;;;;;5.45;1.90;;;18.80;99.90;;;;;;5096756;27;47323;-72
2023/07/17 02:45:52;;;;;;;7.28;1.90;;;18.80;99.90;;;;;;5084004;28;45576;-73
2023/07/17 02:48:19;;;;;;;5.53;1.73;;;18.70;99.90;;;;;;5084704;28;45090;-72
2023/07/17 02:50:51;;;;;;;3.38;1.70;;;18.70;99.90;;;;;;5085989;27;45063;-73
2023/07/17 02:53:17;;;;;;;5.30;1.90;;;18.70;99.90;;;;;;5090179;27;47297;-72
2023/07/17 02:55:44;;;;;;;3.65;1.85;;;18.70;99.90;;;;;;5083798;28;45295;-72
2023/07/17 02:58:11;;;;;;;9.95;1.83;;;18.70;99.90;;;;;;5092794;27;45263;-72
2023/07/17 03:00:38;;;;;;;3.58;1.90;;;18.70;99.90;;;;;;5102151;27;45203;-72
2023/07/17 03:03:07;;;;;;;4.10;2.38;;;18.70;99.90;;;;;;5083237;27;47001;-72
2023/07/17 03:05:35;;;;;;;5.05;1.88;;;18.70;99.90;;;;;;5084029;28;45253;-73
2023/07/17 03:08:03;;;;;;;4.05;1.83;;;18.60;99.90;;;;;;5086827;27;45233;-72
2023/07/17 03:10:31;;;;;;;3.53;1.80;;;18.60;99.90;;;;;;5080500;28;45318;-72
2023/07/17 03:12:57;;;;;;;8.63;1.80;;;18.60;99.90;;;;;;5071404;28;46253;-72
2023/07/17 03:15:25;;;;;;;3.05;1.63;;;18.60;99.90;;;;;;5084370;27;45254;-73
2023/07/17 03:17:51;;;;;;;7.47;1.73;;;18.60;99.90;;;;;;5083050;27;45233;-72
2023/07/17 03:20:19;;;;;;;5.97;1.70;;;18.50;99.60;;;;;;5086850;27;45252;-72
2023/07/17 03:22:46;;;;;;;5.78;2.10;;;18.40;99.90;;;;;;5084607;27;45158;-74
2023/07/17 03:25:14;;;;;;;4.65;1.52;;;18.40;99.90;;;;;;5089388;27;45289;-75
2023/07/17 03:27:41;;;;;;;7.07;2.05;;;18.40;99.90;;;;;;5086920;27;45156;-72
2023/07/17 03:30:08;;;;;;;4.13;1.63;;;18.40;99.80;;;;;;5083165;28;45403;-72
2023/07/17 03:32:36;;;;;;;10.02;2.40;;;18.40;99.90;;;;;;5084387;27;47331;-72
2023/07/17 03:35:03;;;;;;;7.00;2.17;;;18.40;99.80;;;;;;5093241;27;45358;-72
2023/07/17 03:37:30;;;;;;;5.43;1.73;;;18.30;99.90;;;;;;5085362;27;45146;-72
2023/07/17 03:39:57;;;;;;;6.30;2.42;;;18.30;99.60;;;;;;5079337;27;45301;-73
2023/07/17 03:42:25;;;;;;;4.53;1.80;;;18.30;99.90;;;;;;5088146;27;46247;-73
2023/07/17 03:44:52;;;;;;;5.35;1.70;;;18.30;99.60;;;;;;5085101;27;45165;-72
2023/07/17 03:47:19;;;;;;;4.35;1.60;;;18.30;99.10;;;;;;5084133;28;45178;-72
2023/07/17 03:49:46;;;;;;;3.55;1.95;;;18.40;99.20;;;;;;5083746;28;45300;-72
2023/07/17 03:52:13;;;;;;;7.22;1.80;;;18.40;99.20;;;;;;5083625;28;45190;-73
2023/07/17 03:54:40;;;;;;;3.35;1.63;;;18.40;99.00;;;;;;5076612;28;45278;-72
2023/07/17 03:57:07;;;;;;;7.88;1.92;;;18.40;98.70;;;;;;5080040;28;45281;-72
2023/07/17 03:59:50;;;;;;;3.97;1.70;;;18.40;98.70;;;;;;5081334;27;45271;-72
2023/07/17 04:02:16;;;;;;;6.95;1.90;;;18.40;99.00;;;;;;5084221;27;46521;-72
2023/07/17 04:04:43;;;;;;;4.55;1.77;;;18.40;98.90;;;;;;5089009;27;45613;-72
2023/07/17 04:07:11;;;;;;;4.07;1.73;;;18.30;99.00;;;;;;5086401;28;45278;-73
2023/07/17 04:09:38;;;;;;;3.45;1.70;;;18.30;99.40;;;;;;5086100;27;45305;-73
2023/07/17 04:12:06;;;;;;;9.48;2.38;;;18.30;99.40;;;;;;5080353;27;47334;-72
2023/07/17 04:14:33;;;;;;;5.72;1.77;;;18.30;99.10;;;;;;5084897;27;45158;-73
2023/07/17 04:17:01;;;;;;;7.68;2.28;;;18.20;99.40;;;;;;5094720;27;45206;-73
2023/07/17 04:19:28;;;;;;;7.97;1.60;;;18.20;99.20;;;;;;5089625;27;45137;-73
2023/07/17 04:21:55;;;;;;;4.78;1.80;;;18.20;99.30;;;;;;5090013;27;48138;-72
2023/07/17 04:24:23;;;;;;;5.35;1.90;;;18.20;99.30;;;;;;5092499;27;45271;-73
2023/07/17 04:26:50;;;;;;;7.28;1.70;;;18.30;98.90;;;;;;5083418;27;45257;-72
2023/07/17 04:29:17;;;;;;;5.32;1.90;;;18.40;98.30;;;;;;5081301;28;45157;-73
2023/07/17 04:31:44;;;;;;;5.32;2.22;;;18.40;98.10;;;;;;5080684;27;48125;-72
2023/07/17 04:34:12;;;;;;;6.03;2.08;;;18.40;98.30;;;;;;5086635;28;45221;-73
2023/07/17 04:36:39;;;;;;;4.32;1.77;;;18.40;98.00;;;;;;5086449;28;45162;-73
2023/07/17 04:39:06;;;;;;;7.03;1.75;;;18.50;98.10;;;;;;5094330;27;45047;-73
2023/07/17 04:41:33;;;;;;;8.45;2.53;;;18.50;98.40;;;;;;5091599;27;47461;-73
2023/07/17 04:43:59;;;;;;;3.97;1.45;;;18.50;98.60;;;;;;5090825;27;45087;-72
2023/07/17 04:46:26;;;;;;;8.02;1.90;;;18.70;96.00;;;;;;5095709;27;45308;-72
2023/07/17 04:48:53;;;;;;;7.35;2.25;;;18.90;94.80;;;;;;5094885;27;45332;-72
2023/07/17 04:51:21;;;;;;;5.60;1.77;;;19.00;94.40;;;;;;5085956;28;45162;-71
2023/07/17 04:53:47;;;;;;;8.90;1.77;;;19.10;94.40;;;;;;5086506;28;45370;-72
2023/07/17 04:56:14;;;;;;;3.28;1.63;;;19.20;93.80;;;;;;5086441;27;45093;-70
2023/07/17 04:58:41;;;;;;;6.43;1.80;;;19.20;93.80;;;;;;5092330;27;45318;-70
2023/07/17 05:01:07;;;;;;;6.03;1.80;;;19.20;94.20;;;;;;5086829;27;46687;-70
2023/07/17 05:03:36;;;;;;;5.68;2.05;;;19.20;95.30;;;;;;5081663;27;45229;-70
2023/07/17 05:06:03;;;;;;;4.80;1.80;;;19.80;94.50;;;;;;5084832;28;45106;-70
2023/07/17 05:08:31;;;;;;;4.03;1.70;;;20.00;94.10;;;;;;5091864;27;45442;-71
2023/07/17 05:10:59;;;;;;;6.13;1.63;;;20.20;94.00;;;;;;5076774;28;46646;-70
2023/07/17 05:13:27;;;;;;;5.05;1.75;;;20.30;94.20;;;;;;5083040;27;45275;-71
2023/07/17 05:15:54;;;;;;;4.82;1.73;;;20.60;93.20;;;;;;5083682;28;45154;-71
2023/07/17 05:18:21;;;;;;;6.55;1.85;;;20.70;92.20;;;;;;5087723;28;45522;-72
2023/07/17 05:20:50;;;;;;;5.53;1.70;;;20.80;92.30;;;;;;5088055;28;47011;-73
2023/07/17 05:23:17;;;;;;;3.67;1.75;;;20.70;92.70;;;;;;5087936;28;45844;-73
2023/07/17 05:25:54;;;;;;;5.57;1.60;;;20.50;92.70;;;;;;5088180;28;44998;-73
2023/07/17 05:28:21;;;;;;;7.43;2.22;;;20.60;92.70;;;;;;5088818;28;45109;-73
2023/07/17 05:30:51;;;;;;;3.47;1.73;;;20.50;92.90;;;;;;5087930;28;45178;-73
2023/07/17 05:33:18;;;;;;;8.27;2.40;;;19.70;94.10;;;;;;5088506;28;45054;-73
2023/07/17 05:35:45;;;;;;;9.65;2.30;;;19.10;95.60;;;;;;5088232;28;44953;-73
2023/07/17 05:38:12;;;;;;;4.35;2.17;;;18.90;96.40;;;;;;5088060;28;45076;-73
2023/07/17 05:40:39;;;;;;;6.18;2.30;;;18.80;96.30;;;;;;5087553;28;46375;-73
2023/07/17 05:43:08;;;;;;;3.65;2.10;;;18.80;97.30;;;;;;5087493;28;45133;-73
2023/07/17 05:45:34;;;;;;;5.50;2.15;;;18.70;96.50;;;;;;5087891;28;45055;-73
2023/07/17 05:48:02;;;;;;;6.80;2.60;;;18.80;96.20;;;;;;5087969;28;45211;-73
2023/07/17 05:50:29;;;;;;;8.27;2.60;;;18.80;96.90;;;;;;5087127;28;47513;-73
2023/07/17 05:52:56;;;;;;;7.55;2.58;;;18.80;96.80;;;;;;5086599;28;45184;-73
2023/07/17 05:55:23;;;;;;;8.63;2.58;;;18.70;97.30;;;;;;5087683;28;45091;-73
2023/07/17 05:57:50;;;;;;;10.93;2.53;;;18.80;96.10;;;;;;5087977;28;45051;-74
2023/07/17 06:00:19;;;;;;;4.57;2.00;;;18.80;96.50;;;;;;5087264;28;45183;-74
2023/07/17 06:02:45;;;;;;;6.93;2.20;;;19.30;95.80;;;;;;5091047;27;45386;-71
2023/07/17 06:05:12;;;;;;;5.43;2.40;;;19.60;94.60;;;;;;5083550;28;45235;-71
2023/07/17 06:07:39;;;;;;;4.82;1.88;;;19.70;94.60;;;;;;5093909;27;45072;-72
2023/07/17 06:10:07;;;;;;;6.22;2.08;;;19.80;94.00;;;;;;5089434;28;46971;-73
2023/07/17 06:12:34;;;;;;;3.05;1.70;;;19.90;94.00;;;;;;5087172;28;45179;-73
2023/07/17 06:15:01;;;;;;;6.38;2.28;;;20.00;93.60;;;;;;5087373;28;45188;-73
2023/07/17 06:17:29;;;;;;;5.43;2.28;;;19.80;94.00;;;;;;5087715;28;45003;-73
2023/07/17 06:19:56;;;;;;;4.82;1.80;;;19.90;93.30;;;;;;5087278;28;46979;-73
2023/07/17 06:22:23;;;;;;;9.60;2.00;;;19.90;93.70;;;;;;5087673;28;45101;-73
2023/07/17 06:24:50;;;;;;;14.52;2.50;;;19.90;93.10;;;;;;5087040;27;45093;-73
2023/07/17 06:27:17;;;;;;;6.22;1.95;;;20.00;92.80;;;;;;5087078;28;45272;-72
2023/07/17 06:29:44;;;;;;;7.22;2.22;;;20.00;92.60;;;;;;5086818;28;48338;-72
2023/07/17 06:32:10;;;;;;;8.07;2.20;;;19.90;93.20;;;;;;5086843;28;45105;-73
2023/07/17 06:34:41;;;;;;;4.95;2.13;;;19.80;93.10;;;;;;5104413;27;45262;-73
2023/07/17 06:37:08;;;;;;;4.57;2.22;;;20.00;92.60;;;;;;5107167;27;45145;-73
2023/07/17 06:39:35;;;;;;;5.93;2.17;;;20.20;92.90;;;;;;5090026;27;47902;-73
2023/07/17 06:42:02;;;;;;;8.45;2.33;;;20.30;92.10;;;;;;5086701;28;45130;-73
2023/07/17 06:44:29;;;;;;;6.47;2.10;;;20.30;92.00;;;;;;5102561;27;45136;-73
2023/07/17 06:46:55;;;;;;;6.90;2.22;;;20.20;92.80;;;;;;5087506;27;45300;-73
2023/07/17 06:49:22;;;;;;;9.60;2.20;;;20.30;92.30;;;;;;5086417;28;46673;-73
2023/07/17 06:51:50;;;;;;;6.43;2.10;;;20.30;91.90;;;;;;5086802;28;45166;-73
2023/07/17 06:54:17;;;;;;;5.70;2.10;;;20.30;91.90;;;;;;5086904;28;45152;-73
2023/07/17 06:56:44;;;;;;;5.78;2.05;;;20.30;91.60;;;;;;5086618;28;45296;-73
2023/07/17 06:59:11;;;;;;;8.50;2.50;;;20.30;91.40;;;;;;5085768;28;47326;-73
2023/07/17 07:01:37;;;;;;;10.18;2.60;;;20.40;91.70;;;;;;5087342;28;45051;-74
2023/07/17 07:04:05;;;;;;;4.63;1.98;;;20.40;91.60;;;;;;5087453;28;45003;-73
2023/07/17 07:06:31;;;;;;;6.03;2.80;;;20.40;91.20;;;;;;5102864;27;45379;-73
2023/07/17 07:09:00;;;;;;;7.72;2.58;;;20.40;90.70;;;;;;5106789;27;48249;-73
2023/07/17 07:11:26;;;;;;;5.72;2.45;;;20.40;91.30;;;;;;5107138;27;45076;-73
2023/07/17 07:13:53;;;;;;;7.18;2.20;;;20.40;90.90;;;;;;5107104;27;44959;-73
2023/07/17 07:16:20;;;;;;;10.35;3.17;;;20.60;91.10;;;;;;5107423;27;45319;-73
2023/07/17 07:18:47;;;;;;;7.47;3.03;;;20.70;90.00;;;;;;5106926;27;48245;-73
2023/07/17 07:21:14;;;;;;;8.30;2.90;;;20.50;90.00;;;;;;5106965;27;45139;-73
2023/07/17 07:23:41;;;;;;;6.85;2.70;;;20.40;90.80;;;;;;5107324;27;45153;-73
2023/07/17 07:26:09;;;;;;;6.90;2.70;;;20.50;90.20;;;;;;5107002;27;45045;-73
2023/07/17 07:28:36;;;;;;;5.28;2.15;;;20.60;89.00;;;;;;5106836;27;46465;-73
2023/07/17 07:31:02;;;;;;;7.43;3.38;;;20.60;90.10;;;;;;5106779;27;45198;-73
2023/07/17 07:33:29;;;;;;;9.25;3.03;;;20.70;88.50;;;;;;5106739;27;45094;-73
2023/07/17 07:35:56;;;;;;;7.20;2.80;;;20.90;88.00;;;;;;5106817;27;45339;-73
2023/07/17 07:38:23;;;;;;;6.72;3.05;;;20.90;86.80;;;;;;5108350;27;46265;-73
2023/07/17 07:40:50;;;;;;;12.63;3.50;;;20.90;85.50;;;;;;5110339;27;45057;-73
2023/07/17 07:43:19;;;;;;;4.78;3.00;;;20.90;85.40;;;;;;5110390;27;45040;-73
2023/07/17 07:45:45;;;;;;;9.32;3.58;;;20.70;88.10;;;;;;5110459;27;45082;-73
2023/07/17 07:48:12;;;;;;;10.70;3.50;;;20.70;87.50;;;;;;5109997;27;45491;-73
2023/07/17 07:50:39;;;;;;;8.18;3.10;;;20.60;86.00;;;;;;5110411;27;45101;-73
2023/07/17 07:53:06;;;;;;;6.57;3.28;;;20.40;85.20;;;;;;5109888;27;45042;-73
2023/07/17 07:55:32;;;;;;;6.45;3.38;;;20.50;87.30;;;;;;5111866;27;45252;-73
2023/07/17 07:57:59;;;;;;;9.15;3.13;;;20.70;86.50;;;;;;5109592;27;45245;-73
2023/07/17 08:00:27;;;;;;;7.22;3.28;;;21.00;86.10;;;;;;5109396;27;45093;-73
2023/07/17 08:02:54;;;;;;;8.02;2.80;;;21.10;85.30;;;;;;5109810;27;45092;-73
2023/07/17 08:05:22;;;;;;;9.63;3.35;;;21.00;83.10;;;;;;5110003;27;45331;-73
2023/07/17 08:07:48;;;;;;;10.25;3.10;;;20.90;82.90;;;;;;5109658;27;45666;-73
2023/07/17 08:10:15;;;;;;;8.60;3.40;;;20.90;83.30;;;;;;5109509;27;45050;-74
2023/07/17 08:12:42;;;;;;;6.88;3.33;;;21.00;82.30;;;;;;5109656;27;45156;-73
2023/07/17 08:15:10;;;;;;;8.95;3.05;;;21.00;84.00;;;;;;5096568;27;45265;-73
2023/07/17 08:17:38;;;;;;;5.40;2.80;;;21.10;83.60;;;;;;5105207;27;47281;-73
2023/07/17 08:20:06;;;;;;;9.48;3.10;;;21.20;82.40;;;;;;5096801;27;45821;-73
2023/07/17 08:22:33;;;;;;;10.00;3.28;;;21.20;83.30;;;;;;5089038;28;45167;-73
2023/07/17 08:25:00;;;;;;;5.95;3.25;;;21.30;82.00;;;;;;5088758;28;45165;-73
2023/07/17 08:27:27;;;;;;;8.20;3.05;;;21.20;82.10;;;;;;5088629;28;46003;-73
2023/07/17 08:29:54;;;;;;;8.43;3.03;;;21.10;80.80;;;;;;5088523;28;45170;-73
2023/07/17 08:32:21;;;;;;;11.10;3.22;;;21.20;81.30;;;;;;5088338;28;45050;-73
2023/07/17 08:34:49;;;;;;;10.43;3.30;;;21.30;82.00;;;;;;5088411;28;45364;-73
2023/07/17 08:37:16;;;;;;;5.88;3.35;;;21.40;79.40;;;;;;5088281;28;47012;-73
2023/07/17 08:39:42;;;;;;;9.52;3.38;;;21.30;79.40;;;;;;5088563;28;45369;-73
2023/07/17 08:42:11;;;;;;;9.55;3.72;;;21.30;81.50;;;;;;5108926;27;45112;-73
2023/07/17 08:44:38;;;;;;;6.82;3.20;;;21.40;79.40;;;;;;5109179;27;45283;-73
2023/07/17 08:47:08;;;;;;;12.18;3.80;;;21.30;81.20;;;;;;5098901;27;46663;-74
2023/07/17 08:49:35;;;;;;;8.15;3.42;;;21.40;80.10;;;;;;5103456;27;45127;-73
2023/07/17 08:52:04;;;;;;;9.77;3.25;;;21.30;79.40;;;;;;5109287;27;45179;-73
2023/07/17 08:54:30;;;;;;;6.32;3.20;;;21.20;79.30;;;;;;5109046;27;45121;-73
2023/07/17 08:57:03;;;;;;;11.27;3.92;;;21.10;79.30;;;;;;5087685;27;46502;-73
2023/07/17 08:59:30;;;;;;;14.35;3.67;;;21.10;78.20;;;;;;5088155;27;45625;-72
2023/07/17 09:01:57;;;;;;;8.52;4.00;;;21.10;79.20;;;;;;5083663;28;45113;-73
2023/07/17 09:04:25;;;;;;;5.82;2.90;;;21.20;77.50;;;;;;5081192;28;45271;-72
2023/07/17 09:06:52;;;;;;;8.18;3.85;;;21.20;79.20;;;;;;5089415;27;46615;-73
2023/07/17 09:09:20;;;;;;;8.30;3.38;;;21.20;79.10;;;;;;5092798;27;45266;-74
2023/07/17 09:11:47;;;;;;;10.65;3.45;;;21.20;80.10;;;;;;5090261;27;45095;-73
2023/07/17 09:14:14;;;;;;;8.07;3.67;;;21.40;80.00;;;;;;5086711;27;45248;-73
2023/07/17 09:16:41;;;;;;;7.47;3.47;;;21.40;77.80;;;;;;5086793;28;45427;-73
2023/07/17 09:19:07;;;;;;;8.00;3.00;;;21.40;79.50;;;;;;5090518;27;45178;-73
2023/07/17 09:21:34;;;;;;;9.98;3.95;;;21.50;76.70;;;;;;5086705;28;45158;-73
2023/07/17 09:24:01;;;;;;;7.43;3.15;;;21.60;77.90;;;;;;5086526;28;45113;-73
2023/07/17 09:26:30;;;;;;;9.10;3.42;;;21.50;75.60;;;;;;5086115;28;47267;-73
2023/07/17 09:28:58;;;;;;;6.75;2.60;;;21.40;77.40;;;;;;5085203;27;45124;-73
2023/07/17 09:31:26;;;;;;;10.68;3.30;;;21.40;78.70;;;;;;5085472;28;45095;-72
2023/07/17 09:33:53;;;;;;;7.50;3.30;;;21.60;78.20;;;;;;5095900;27;45353;-74
2023/07/17 09:36:21;;;;;;;6.80;3.10;;;21.70;77.70;;;;;;5092523;27;46653;-73
2023/07/17 09:38:51;;;;;;;7.53;3.15;;;21.50;73.30;;;;;;5087996;27;45105;-74
2023/07/17 09:41:19;;;;;;;4.55;2.58;;;21.30;74.20;;;;;;5085949;28;45173;-73
2023/07/17 09:43:54;;;;;;;8.68;3.25;;;21.50;78.70;;;;;;5094668;27;45215;-73
2023/07/17 09:46:21;;;;;;;9.60;3.47;;;21.60;77.50;;;;;;5086325;28;47035;-73
2023/07/17 09:48:50;;;;;;;9.18;3.58;;;21.50;73.80;;;;;;5086446;28;45279;-73
2023/07/17 09:51:18;;;;;;;13.07;3.35;;;21.40;74.30;;;;;;5100263;27;45167;-73
2023/07/17 09:53:46;;;;;;;9.57;3.55;;;21.40;75.90;;;;;;5097123;27;45431;-74
2023/07/17 09:56:15;;;;;;;9.20;3.55;;;21.50;75.00;;;;;;5090856;27;46262;-74
2023/07/17 09:58:46;;;;;;;8.65;3.47;;;21.50;75.90;;;;;;5097074;27;45213;-74
2023/07/17 10:01:17;;;;;;;10.02;3.67;;;21.70;75.40;;;;;;5090028;27;45187;-74
2023/07/17 10:03:46;;;;;;;9.88;3.35;;;21.80;73.90;;;;;;5095040;27;45245;-74
2023/07/17 10:06:14;;;;;;;15.85;3.90;;;21.60;73.40;;;;;;5094612;27;45417;-74
2023/07/17 10:08:43;;;;;;;11.80;4.13;;;21.50;72.10;;;;;;5086153;27;45118;-71
2023/07/17 10:11:10;;;;;;;6.20;3.05;;;21.40;74.60;;;;;;5080875;27;45447;-72
2023/07/17 10:13:37;;;;;;;7.72;3.85;;;21.60;73.20;;;;;;5085995;27;45291;-72
2023/07/17 10:16:04;;;;;;;9.95;3.35;;;21.80;71.70;;;;;;5076624;28;47223;-73
2023/07/17 10:18:33;;;;;;;5.28;2.85;;;21.80;71.40;;;;;;5066668;28;45592;-74
2023/07/17 10:21:04;;;;;;;8.95;3.13;;;21.80;73.10;;;;;;5067115;28;45215;-73
2023/07/17 10:23:31;;;;;;;5.90;2.72;;;21.90;73.50;;;;;;5067581;28;45149;-73
2023/07/17 10:26:08;;;;;;;8.52;3.78;;;22.00;73.50;;;;;;5066908;28;45161;-74
2023/07/17 10:28:36;;;;;;;8.82;3.65;;;21.90;72.80;;;;;;5072837;27;45205;-71
2023/07/17 10:31:09;;;;;;;14.73;4.05;;;21.90;70.80;;;;;;5084974;28;45285;-71
2023/07/17 10:33:39;;;;;;;11.23;3.53;;;21.90;71.20;;;;;;5080670;28;45070;-72
2023/07/17 10:36:06;;;;;;;8.35;3.85;;;22.00;72.10;;;;;;5085135;27;46584;-73
2023/07/17 10:38:36;;;;;;;9.98;3.63;;;22.00;71.00;;;;;;5086786;28;45105;-74
2023/07/17 10:41:05;;;;;;;8.88;3.75;;;21.90;72.40;;;;;;5087256;28;45176;-74
2023/07/17 10:43:33;;;;;;;7.97;3.60;;;21.90;72.00;;;;;;5087288;28;45105;-74
2023/07/17 10:46:00;;;;;;;7.18;3.20;;;22.00;71.40;;;;;;5086640;28;48467;-73
2023/07/17 10:48:31;;;;;;;10.00;4.10;;;21.90;71.60;;;;;;5086785;28;45071;-73
2023/07/17 10:50:59;;;;;;;7.55;3.75;;;21.80;70.70;;;;;;5087507;28;45002;-73
2023/07/17 10:53:26;;;;;;;10.20;3.90;;;21.80;71.80;;;;;;5087128;28;45069;-74
2023/07/17 10:55:53;;;;;;;9.38;3.88;;;21.90;70.00;;;;;;5086807;28;47477;-74
2023/07/17 10:58:23;;;;;;;11.00;3.78;;;21.90;70.90;;;;;;5087071;28;45011;-74
2023/07/17 11:00:50;;;;;;;9.35;3.45;;;22.00;69.20;;;;;;5086675;28;45082;-73
2023/07/17 11:03:20;;;;;;;13.70;3.85;;;22.00;68.20;;;;;;5086750;28;45062;-73
2023/07/17 11:05:47;;;;;;;10.95;3.85;;;21.90;70.40;;;;;;5086475;28;46769;-73
2023/07/17 11:08:15;;;;;;;6.10;3.30;;;22.00;70.60;;;;;;5086678;28;45098;-73
2023/07/17 11:10:44;;;;;;;7.43;3.20;;;21.90;71.70;;;;;;5086419;28;45029;-73
2023/07/17 11:13:11;;;;;;;11.80;4.03;;;21.90;68.30;;;;;;5086272;27;45012;-74
2023/07/17 11:15:38;;;;;;;9.13;3.90;;;21.90;70.10;;;;;;5086191;28;47236;-73
2023/07/17 11:18:07;;;;;;;9.98;3.40;;;22.00;69.80;;;;;;5086059;28;45108;-74
2023/07/17 11:20:34;;;;;;;10.15;3.75;;;22.00;68.30;;;;;;5086353;28;45228;-74
2023/07/17 11:23:03;;;;;;;10.07;3.47;;;22.00;68.40;;;;;;5088076;28;45108;-74
2023/07/17 11:25:33;;;;;;;9.20;3.60;;;22.00;69.80;;;;;;5092518;27;48001;-74
2023/07/17 11:28:01;;;;;;;7.60;3.30;;;22.00;69.30;;;;;;5094920;27;45112;-74
2023/07/17 11:30:29;;;;;;;11.35;3.80;;;21.90;66.40;;;;;;5085122;28;45188;-71
2023/07/17 11:33:07;;;;;;;12.43;4.03;;;21.80;66.70;;;;;;5080926;28;45204;-71
2023/07/17 11:35:45;;;;;;;11.73;4.05;;;21.70;69.40;;;;;;5075219;27;48290;-72
2023/07/17 11:38:14;;;;;;;11.60;3.60;;;21.70;69.10;;;;;;5075292;27;45826;-73
2023/07/17 11:40:56;;;;;;;7.32;4.05;;;21.80;70.00;;;;;;5069115;28;45244;-70
2023/07/17 11:43:25;;;;;;;11.35;3.70;;;21.80;70.10;;;;;;5066124;28;45301;-71
2023/07/17 11:45:54;;;;;;;12.02;4.32;;;21.90;70.70;;;;;;5070878;27;49151;-73
2023/07/17 11:48:21;;;;;;;10.90;3.55;;;21.80;69.60;;;;;;5106485;27;45210;-73
2023/07/17 11:50:48;;;;;;;10.52;3.78;;;21.90;68.90;;;;;;5093654;27;45225;-72
2023/07/17 11:53:16;;;;;;;8.80;3.47;;;22.00;70.20;;;;;;5090943;27;45236;-73
2023/07/17 11:55:44;;;;;;;8.95;3.53;;;22.10;69.10;;;;;;5088672;27;48003;-73
2023/07/17 11:58:17;;;;;;;12.52;3.47;;;22.20;68.80;;;;;;5085763;28;46086;-73
2023/07/17 12:00:45;;;;;;;8.50;3.38;;;22.20;67.30;;;;;;5086137;28;45109;-73
2023/07/17 12:03:12;;;;;;;8.25;3.70;;;22.20;65.80;;;;;;5086312;28;45312;-74
2023/07/17 12:05:40;;;;;;;8.10;3.40;;;22.20;69.50;;;;;;5086109;28;47563;-74
2023/07/17 12:08:07;;;;;;;11.02;3.95;;;22.30;68.90;;;;;;5085760;28;45227;-74
2023/07/17 12:10:35;;;;;;;7.28;3.60;;;22.30;67.40;;;;;;5086081;28;45109;-74
2023/07/17 12:13:02;;;;;;;9.18;3.90;;;22.40;67.80;;;;;;5085783;28;45038;-73
2023/07/17 12:15:31;;;;;;;13.65;4.20;;;22.40;66.20;;;;;;5087863;28;48352;-73
2023/07/17 12:17:58;;;;;;;10.52;3.88;;;22.40;69.30;;;;;;5085619;28;45035;-74
2023/07/17 12:20:25;;;;;;;6.15;3.80;;;22.40;67.40;;;;;;5082813;27;45204;-72
2023/07/17 12:22:53;;;;;;;9.20;3.78;;;22.40;68.10;;;;;;5081455;28;45424;-72
2023/07/17 12:25:20;;;;;;;7.97;4.18;;;22.40;68.30;;;;;;5079992;28;47178;-73
2023/07/17 12:27:48;;;;;;;11.57;3.17;;;22.40;67.00;;;;;;5085793;28;45133;-73
2023/07/17 12:30:16;;;;;;;10.57;3.03;;;22.50;65.50;;;;;;5089087;28;45042;-74
2023/07/17 12:32:45;;;;;;;9.65;3.78;;;22.50;65.00;;;;;;5089636;28;45138;-73
2023/07/17 12:35:11;;;;;;;7.57;3.53;;;22.40;66.60;;;;;;5089031;28;47103;-73
2023/07/17 12:37:38;;;;;;;11.20;3.47;;;22.50;66.80;;;;;;5089120;28;45159;-73
2023/07/17 12:40:06;;;;;;;6.78;3.55;;;22.50;63.40;;;;;;5089004;28;45200;-73
2023/07/17 12:42:33;;;;;;;6.53;3.40;;;22.40;65.40;;;;;;5089240;28;45474;-73
2023/07/17 12:45:00;;;;;;;4.82;2.72;;;22.40;64.20;;;;;;5089108;28;46390;-74
2023/07/17 12:47:27;;;;;;;7.20;2.90;;;22.50;63.90;;;;;;5088812;28;45091;-73